CheckWX is a tool to help pilots better visualize weather data.  It is not intended as a substitute for an official pre-flight weather briefing.

05:08:36 UTC

KEWK METAR
Newton-City-County Airport
Newton, Kansas, USA
Current

13 mins ago

KEWK 180456Z AUTO 32022G44KT 10SM VCTS SQ FEW023 SCT028 SCT090 22/17 A2984 RMK AO2 PK WND 33044/0453 LTG DSNT NW-NE TSB55 SLP089 T02220172 403000200
Observed
Aug-18 @ 04:56 UTC
Wind
  • 320° at 22 KTS
  • Gusting to 44 KTS
Visibility
10 SM
Flight Rules
VFR
Conditions
Area Thunderstorm, Squalls
Cloud Levels
  • Few at 2,300' AGL
  • Scattered at 2,800' AGL
  • Scattered at 9,000' AGL
Temperature
22°C / 72°F
Dewpoint
17°C / 63°F
Humidity
73%
Altimeter
29.84" Hg
Pressure
1010.52 hPa
Previous

1 hour ago

KEWK 180356Z AUTO 15011KT 10SM CLR 26/24 A2976 RMK AO2 LTG DSNT N SLP063 T02610239
Observed
Aug-18 @ 03:56 UTC
Wind
  • 150° at 11 KTS
Visibility
10 SM
Flight Rules
VFR
Cloud Levels
  • Clear skies
Temperature
26°C / 79°F
Dewpoint
24°C / 75°F
Humidity
89%
Altimeter
29.76" Hg
Pressure
1007.82 hPa
Previous

2 hours ago

KEWK 180256Z AUTO 13012KT 10SM CLR 26/24 A2976 RMK AO2 SLP060 T02610244 53001
Observed
Aug-18 @ 02:56 UTC
Wind
  • 130° at 12 KTS
Visibility
10 SM
Flight Rules
VFR
Cloud Levels
  • Clear skies
Temperature
26°C / 79°F
Dewpoint
24°C / 75°F
Humidity
89%
Altimeter
29.76" Hg
Pressure
1007.82 hPa